• Join FlightAware (Why Join?)
  • Login
  • US Flag GB Flag 
03:48 EST


 

Airport Tracker/Info


-or-


 

Live Flight TrackerFlight Track Log ✈ DAL268 ✈ 09-Sep-2013 ✈ KJFK - LLBG / TLV

Flight Track Log - Related Links

Times and Time Zones

All times are in EDT time to prevent confusion due to time zone crossing. See the DAL268 flight status page for this flight to view local times or setup timezone preferences in your user account.

Time Position Orientation Groundspeed Altitude Reporting Facility
EDT Latitude Longitude Course Direction KTS MPH feet Rate Location/Type
22:54 40.6310 -73.7800 360° North  Level FlightAware
22:56 40.8207 -73.6000 North  Level FlightAware Approximate
22:57 40.9377 -73.5000 North  Level FlightAware Approximate
23:11 40.8966 -73.5368 37° Northeast  Level FlightAware Approximate
23:11 40.6360 -73.8060 123° Southeast 125 144  Level FlightAware
23:11 40.6290 -73.7900 120° Southeast 175 201 600 Level FlightAware
23:12 40.6180 -73.7620 117° Southeast 194 223 500 1,380 Climbing FlightAware
23:12 40.6160 -73.7370 96° East 204 235 1,100 1,500 Climbing FlightAware
23:12 40.6160 -73.7220 90° East 218 251 1,300 1,020 Climbing FlightAware
23:13 40.6150 -73.6910 92° East 242 278 1,700 1,080 Climbing FlightAware
23:13 40.6210 -73.6360 82° East 276 318 2,400 1,260 Climbing FlightAware
23:14 40.6310 -73.6040 68° East 293 337 2,900 1,920 Climbing FlightAware
23:14 40.6430 -73.5710 64° Northeast 297 342 3,700 2,400 Climbing FlightAware
23:14 40.6510 -73.5560 55° Northeast 300 345 4,100 2,280 Climbing FlightAware
23:14 40.6600 -73.5460 40° Northeast 301 346 4,400 2,280 Climbing FlightAware
23:15 40.6820 -73.5310 27° Northeast 300 345 5,100 2,700 Climbing FlightAware
23:15 40.7100 -73.5140 25° Northeast 298 343 6,200 2,400 Climbing FlightAware
23:15 40.7350 -73.5000 23° Northeast 313 360 6,800 2,220 Climbing FlightAware
23:16 40.7590 -73.4860 24° Northeast 309 356 7,700 2,400 Climbing FlightAware
23:16 40.7930 -73.4660 24° Northeast 319 367 8,600 2,280 Climbing FlightAware
23:16 40.8100 -73.4570 22° Northeast 320 368 9,100 2,400 Climbing FlightAware
23:17 40.8380 -73.4420 22° Northeast 323 372 9,900 1,920 Climbing FlightAware
23:17 40.8890 -73.4140 23° Northeast 344 396 10,900 1,380 Climbing FlightAware
23:18 40.9450 -73.3820 23° Northeast 375 432 11,600 1,080 Climbing FlightAware
23:18 41.0020 -73.3510 22° Northeast 403 464 12,200 960 Climbing FlightAware
23:19 41.0580 -73.3190 23° Northeast 427 491 12,700 1,500 Climbing FlightAware
23:20 41.1270 -73.2800 23° Northeast 435 501 14,000 2,040 Climbing FlightAware
23:20 41.1950 -73.2420 23° Northeast 443 510 15,300 2,040 Climbing FlightAware
23:21 41.2560 -73.2070 23° Northeast 448 516 16,400 1,920 Climbing FlightAware
23:21 41.3080 -73.1580 35° Northeast 463 533 17,300 1,740 Climbing FlightAware
23:22 41.3550 -73.0800 51° Northeast 475 547 18,300 1,680 Climbing FlightAware
23:22 41.3980 -72.9940 56° Northeast 480 552 19,300 1,560 Climbing FlightAware
23:23 41.4420 -72.9110 55° Northeast 489 563 20,100 1,560 Climbing FlightAware
23:24 41.4820 -72.8340 55° Northeast 490 564 21,100 1,620 Climbing FlightAware
23:24 41.5310 -72.7420 55° Northeast 496 571 22,000 1,440 Climbing FlightAware
23:25 41.5800 -72.6500 55° Northeast 501 577 22,900 1,380 Climbing FlightAware
23:25 41.6260 -72.5630 55° Northeast 507 583 23,600 1,320 Climbing FlightAware
23:26 41.6700 -72.4690 58° Northeast 512 589 24,400 1,140 Climbing FlightAware
23:26 41.7160 -72.3830 54° Northeast 512 589 25,000 1,200 Climbing FlightAware
23:27 41.7740 -72.2890 50° Northeast 515 593 25,900 1,380 Climbing FlightAware
23:28 41.8280 -72.2020 50° Northeast 513 590 26,700 1,200 Climbing FlightAware
23:28 41.8740 -72.1260 51° Northeast 515 593 27,300 1,440 Climbing FlightAware
23:29 41.9180 -72.0500 52° Northeast 512 589 28,200 1,440 Climbing FlightAware
23:29 41.9740 -71.9530 52° Northeast 504 580 29,000 1,200 Climbing FlightAware
23:30 42.0300 -71.8560 52° Northeast 500 575 29,800 1,200 Climbing FlightAware
23:30 42.0750 -71.7810 51° Northeast 499 574 30,400 1,080 Climbing FlightAware
23:31 42.1270 -71.6950 51° Northeast 498 573 31,000 480 Climbing FlightAware
23:32 42.1850 -71.5970 51° Northeast 496 571 31,000  Level FlightAware
23:32 42.2300 -71.5220 51° Northeast 495 570 31,000  Level FlightAware
23:33 42.2800 -71.4380 51° Northeast 493 567 31,000  Level FlightAware
23:33 42.3360 -71.3420 52° Northeast 496 571 31,000 -120 Level FlightAware
23:34 42.3860 -71.2580 51° Northeast 495 570 30,900  Descending FlightAware
23:35 42.4290 -71.1850 51° Northeast 495 570 31,000 60 Climbing FlightAware
23:35 42.4810 -71.0970 51° Northeast 496 571 31,000  Level FlightAware
23:36 42.5290 -71.0150 52° Northeast 497 572 31,000  Level FlightAware
23:36 42.5950 -70.9010 52° Northeast 499 574 31,000  Level FlightAware
23:37 42.6450 -70.8150 52° Northeast 501 577 31,000  Level FlightAware
23:38 42.6930 -70.7320 52° Northeast 500 575 31,000  Level FlightAware
23:38 42.7410 -70.6500 51° Northeast 500 575 31,000  Level FlightAware
23:39 42.7920 -70.5610 52° Northeast 500 575 31,000  Level FlightAware
23:39 42.8440 -70.4700 52° Northeast 500 575 31,000 60 Level FlightAware
23:40 42.8980 -70.3760 52° Northeast 502 578 31,100 540 Climbing FlightAware
23:41 42.9460 -70.2920 52° Northeast 501 577 31,700 1,080 Climbing FlightAware
23:41 43.0020 -70.1930 52° Northeast 496 571 32,500 1,080 Climbing FlightAware
23:42 43.0470 -70.1140 52° Northeast 495 570 33,000 420 Climbing FlightAware
23:42 43.1010 -70.0190 52° Northeast 489 563 33,000  Level FlightAware
23:43 43.1490 -69.9340 52° Northeast 486 559 33,000  Level FlightAware
23:44 43.2140 -69.8190 52° Northeast 483 556 33,000  Level FlightAware
23:44 43.2630 -69.7310 53° Northeast 481 554 33,000  Level FlightAware
23:45 43.3110 -69.6460 52° Northeast 480 552 33,000  Level FlightAware
23:46 43.3670 -69.5460 52° Northeast 483 556 33,000  Level FlightAware
23:46 43.4090 -69.4690 53° Northeast 483 556 33,000  Level FlightAware
23:47 43.4540 -69.3910 52° Northeast 483 556 33,000  Level FlightAware
23:47 43.4960 -69.3170 52° Northeast 483 556 33,000  Level FlightAware
23:48 43.5380 -69.2420 52° Northeast 483 556 33,000  Level FlightAware
23:49 43.5800 -69.1680 52° Northeast 483 556 33,000  Level FlightAware
23:49 43.6220 -69.0940 52° Northeast 483 556 33,000  Level FlightAware
23:50 43.6650 -69.0170 52° Northeast 483 556 33,000  Level FlightAware
23:50 43.7070 -68.9430 52° Northeast 483 556 33,000  Level FlightAware
23:51 43.7510 -68.8660 52° Northeast 483 556 33,000  Level FlightAware
23:52 43.7930 -68.7910 52° Northeast 483 556 33,000  Level FlightAware
23:52 43.8350 -68.7170 52° Northeast 483 556 33,000  Level FlightAware
23:53 43.8770 -68.6420 52° Northeast 483 556 33,000  Level FlightAware
23:54 43.9190 -68.5670 52° Northeast 483 556 33,000  Level FlightAware
23:54 43.9620 -68.4900 52° Northeast 483 556 33,000  Level FlightAware
23:55 44.1030 -68.1930 56° Northeast 498 573 33,000  Level FlightAware
23:55 44.1620 -68.0820 53° Northeast 502 578 33,000  Level FlightAware
23:56 44.2090 -67.9940 53° Northeast 504 580 33,000  Level FlightAware
23:57 44.2580 -67.9000 54° Northeast 505 581 33,000  Level FlightAware
23:57 44.3080 -67.8060 53° Northeast 508 585 33,000  Level FlightAware
23:58 44.3530 -67.7210 53° Northeast 511 588 33,000  Level FlightAware
23:58 44.4030 -67.6240 54° Northeast 513 590 33,000  Level FlightAware
23:59 44.4550 -67.5240 54° Northeast 513 590 33,000  Level FlightAware
23:59 44.5030 -67.4320 54° Northeast 513 590 33,000  Level FlightAware
00:00 44.5540 -67.3340 54° Northeast 512 589 33,000  Level FlightAware
00:01 44.5980 -67.2490 54° Northeast 512 589 33,000  Level FlightAware
00:01 44.6490 -67.1500 54° Northeast 514 592 33,000  Level FlightAware
00:02 44.6980 -67.0540 54° Northeast 515 593 33,000  Level FlightAware
00:02 44.7490 -66.9560 54° Northeast 516 594 33,000  Level FlightAware
00:03 44.7950 -66.8660 54° Northeast 519 597 33,000  Level FlightAware
00:04 44.8440 -66.7690 55° Northeast 522 601 33,000  Level FlightAware
00:04 44.8960 -66.6660 54° Northeast 525 604 33,000  Level FlightAware
00:05 44.9470 -66.5650 54° Northeast 525 604 33,000 -120 Level FlightAware
00:05 45.0020 -66.4550 55° Northeast 527 606 32,900  Descending FlightAware
00:06 45.0460 -66.3680 54° Northeast 527 606 33,000 60 Climbing FlightAware
00:07 45.1040 -66.2530 54° Northeast 527 606 33,000  Level FlightAware
00:07 45.1530 -66.1550 55° Northeast 528 608 33,000  Level FlightAware
00:08 45.2020 -66.0550 55° Northeast 529 609 33,000  Level FlightAware
00:08 45.2470 -65.9640 55° Northeast 529 609 33,000  Level FlightAware
00:09 45.2980 -65.8600 55° Northeast 528 608 33,000  Level FlightAware
00:10 45.3490 -65.7580 55° Northeast 528 608 33,000  Level FlightAware
00:10 45.3930 -65.6670 55° Northeast 528 608 33,000  Level FlightAware
00:11 45.4320 -65.5860 56° Northeast 527 606 33,000  Level FlightAware
00:11 45.4930 -65.4620 55° Northeast 528 608 33,000  Level FlightAware
00:12 45.5440 -65.3570 55° Northeast 528 608 33,000  Level FlightAware
00:12 45.5880 -65.2650 56° Northeast 527 606 33,000  Level FlightAware
00:13 45.6390 -65.1600 55° Northeast 526 605 33,000  Level FlightAware
00:14 45.6800 -65.0740 56° Northeast 526 605 33,000  Level FlightAware
00:14 45.7300 -64.9700 55° Northeast 527 606 33,000  Level FlightAware
00:15 45.7760 -64.8730 56° Northeast 527 606 33,000  Level FlightAware
00:15 45.8210 -64.7800 55° Northeast 527 606 33,000  Level FlightAware
00:16 45.8640 -64.6920 55° Northeast 527 606 33,000  Level FlightAware
00:17 45.9070 -64.6040 55° Northeast 527 606 33,000  Level FlightAware
00:17 45.9500 -64.5160 55° Northeast 527 606 33,000  Level FlightAware
00:18 46.0170 -64.3600 58° Northeast 520 598 33,000  Level FlightAware
00:18 46.0590 -64.2710 56° Northeast 519 597 33,000  Level FlightAware
00:19 46.0980 -64.1880 56° Northeast 519 597 33,000  Level FlightAware
00:19 46.1390 -64.1000 56° Northeast 519 597 33,000  Level FlightAware
00:20 46.1800 -64.0120 56° Northeast 519 597 33,000  Level FlightAware
00:21 46.2210 -63.9240 56° Northeast 519 597 33,000  Level FlightAware
00:21 46.2620 -63.8360 56° Northeast 519 597 33,000  Level FlightAware
00:22 46.3050 -63.7450 56° Northeast 519 597 33,000  Level FlightAware
00:22 46.3460 -63.6570 56° Northeast 519 597 33,000  Level FlightAware
00:23 46.3870 -63.5690 56° Northeast 519 597 33,000  Level FlightAware
00:24 46.4280 -63.4800 56° Northeast 519 597 33,000  Level FlightAware
00:24 46.4700 -63.3890 56° Northeast 519 597 33,000  Level FlightAware
00:25 46.5110 -63.3010 56° Northeast 519 597 33,000  Level FlightAware
00:25 46.5520 -63.2120 56° Northeast 519 597 33,000  Level FlightAware
00:26 46.5960 -63.1190 55° Northeast 519 597 33,000  Level FlightAware
00:27 46.6380 -63.0280 56° Northeast 519 597 33,000  Level FlightAware
00:27 46.6790 -62.9390 56° Northeast 519 597 33,000  Level FlightAware
00:31 47.1270 -61.8730 58° Northeast 538 619 33,000  Level FlightAware
00:32 47.1760 -61.7610 57° Northeast 537 618 33,000  Level FlightAware
00:33 47.2190 -61.6650 57° Northeast 537 618 33,000  Level FlightAware
00:33 47.2740 -61.5270 60° Northeast 537 618 33,000  Level FlightAware
00:34 47.3180 -61.4210 58° Northeast 537 618 33,000  Level FlightAware
00:34 47.3650 -61.3090 58° Northeast 538 619 33,000  Level FlightAware
00:35 47.4080 -61.2070 58° Northeast 539 620 33,000  Level FlightAware
00:36 47.4580 -61.0850 59° Northeast 540 621 33,000  Level FlightAware
00:36 47.4980 -60.9900 58° Northeast 540 621 33,000  Level FlightAware
00:37 47.5380 -60.8940 58° Northeast 540 621 33,000  Level FlightAware
00:37 47.5790 -60.7980 58° Northeast 540 621 33,000  Level FlightAware
00:38 47.6210 -60.6990 58° Northeast 540 621 33,000  Level FlightAware
00:39 47.6610 -60.6030 58° Northeast 540 621 33,000  Level FlightAware
00:39 47.7020 -60.5060 58° Northeast 540 621 33,000  Level FlightAware
00:40 47.7420 -60.4100 58° Northeast 540 621 33,000  Level FlightAware
00:40 47.7830 -60.3140 58° Northeast 540 621 33,000  Level FlightAware
00:41 47.8230 -60.2170 58° Northeast 540 621 33,000  Level FlightAware
00:42 47.8650 -60.1180 58° Northeast 540 621 33,000  Level FlightAware
00:42 47.9050 -60.0210 58° Northeast 540 621 33,000  Level FlightAware
00:43 47.9470 -59.9220 58° Northeast 540 621 33,000  Level FlightAware
00:44 48.0690 -59.5650 63° Northeast 546 628 33,000  Level FlightAware
00:44 48.1250 -59.4210 60° Northeast 547 629 33,000  Level FlightAware
00:45 48.1660 -59.3150 60° Northeast 551 634 33,000  Level FlightAware
00:46 48.2210 -59.1740 60° Northeast 551 634 33,000  Level FlightAware
00:46 48.2680 -59.0500 60° Northeast 552 635 33,000  Level FlightAware
00:47 48.3130 -58.9320 60° Northeast 552 635 33,000  Level FlightAware
00:48 48.3750 -58.7710 60° Northeast 553 636 33,000  Level FlightAware
00:48 48.4130 -58.6690 61° Northeast 554 638 33,000  Level FlightAware
00:49 48.4580 -58.5500 60° Northeast 556 640 33,000  Level FlightAware
00:49 48.5080 -58.4160 61° Northeast 557 641 33,000  Level FlightAware
00:50 48.5520 -58.2990 60° Northeast 558 642 33,000  Level FlightAware
00:50 48.5910 -58.1940 61° Northeast 557 641 33,000  Level FlightAware
00:51 48.6350 -58.0740 61° Northeast 557 641 33,000  Level FlightAware
00:52 48.6790 -57.9560 61° Northeast 557 641 33,000  Level FlightAware
00:52 48.7290 -57.8190 61° Northeast 559 643 33,000  Level FlightAware
00:53 48.7660 -57.7190 61° Northeast 560 644 33,000 -120 Level FlightAware
00:53 48.8140 -57.5750 63° Northeast 561 646 32,900  Descending FlightAware
00:54 48.8540 -57.4530 63° Northeast 561 646 33,000 60 Climbing FlightAware
00:55 48.8880 -57.3480 64° Northeast 561 646 33,000  Level FlightAware
00:55 48.9340 -57.2090 63° Northeast 563 648 33,000  Level FlightAware
00:56 48.9700 -57.1010 63° Northeast 563 648 33,000 -120 Level FlightAware
00:56 49.0160 -56.9590 64° Northeast 565 650 32,900  Descending FlightAware
00:57 49.0560 -56.8360 64° Northeast 563 648 33,000 60 Climbing FlightAware
00:57 49.0920 -56.7250 64° Northeast 564 649 33,000  Level FlightAware
00:58 49.1320 -56.6030 63° Northeast 564 649 33,000 -120 Level FlightAware
00:59 49.1780 -56.4580 64° Northeast 567 652 32,900  Descending FlightAware
00:59 49.2120 -56.3510 64° Northeast 568 654 33,000 60 Climbing FlightAware
01:00 49.2590 -56.2050 64° Northeast 569 655 33,000  Level FlightAware
01:00 49.2930 -56.0960 64° Northeast 572 658 33,000  Level FlightAware
01:01 49.3390 -55.9510 64° Northeast 573 659 33,000  Level FlightAware
01:02 49.3790 -55.8240 64° Northeast 575 662 33,000  Level FlightAware
01:02 49.4130 -55.7110 65° Northeast 576 663 33,000  Level FlightAware
01:03 49.4580 -55.5660 64° Northeast 577 664 33,000  Level FlightAware
01:03 49.4930 -55.4530 64° Northeast 579 666 33,000  Level FlightAware
01:04 49.5330 -55.3230 65° Northeast 579 666 33,000  Level FlightAware
01:05 49.5790 -55.1730 65° Northeast 580 667 33,000  Level FlightAware
01:05 49.6190 -55.0400 65° Northeast 582 670 33,000  Level FlightAware
01:06 49.6530 -54.9270 65° Northeast 582 670 33,000  Level FlightAware
01:06 49.6980 -54.7760 65° Northeast 583 671 33,000  Level FlightAware
01:07 49.7370 -54.6440 65° Northeast 583 671 33,000  Level FlightAware
01:07 49.7710 -54.5300 65° Northeast 584 672 33,000  Level FlightAware
01:08 49.8100 -54.3990 65° Northeast 584 672 33,000  Level FlightAware
01:09 49.8540 -54.2480 66° East 583 671 33,000  Level FlightAware
01:09 49.8870 -54.1360 65° Northeast 583 671 33,000  Level FlightAware
01:10 49.9230 -54.0110 66° East 584 672 33,000  Level FlightAware
01:10 49.9710 -53.8460 66° East 584 672 33,000  Level FlightAware
01:11 50.0030 -53.7330 66° East 585 673 33,000  Level FlightAware
01:11 50.0420 -53.5970 66° East 585 673 33,000  Level FlightAware
01:12 50.0800 -53.4620 66° East 586 674 33,000  Level FlightAware
01:13 50.1170 -53.3300 66° East 587 676 33,000 600 Level FlightAware
01:13 50.1620 -53.1720 66° East 583 671 33,800 780 Climbing FlightAware
01:14 50.1990 -53.0370 67° East 583 671 34,000 180 Climbing FlightAware
01:14 50.2310 -52.9210 67° East 583 671 34,000  Level FlightAware
01:15 50.2670 -52.7920 66° East 584 672 34,000  Level FlightAware
01:16 49.7167 -55.0000 66° East 564 649 34,000 -120 Level ETMS Enhanced Traffic Management System
01:16 50.3240 -52.5860 67° East 584 672 33,900  Descending FlightAware
01:16 50.3680 -52.4210 67° East 793 913 34,000 60 Climbing FlightAware
01:17 50.4030 -52.2900 67° East 584 672 34,000  Level FlightAware
01:18 50.4370 -52.1660 67° East 584 672 34,000  Level FlightAware
01:18 50.4690 -52.0460 67° East 584 672 34,000  Level FlightAware
01:19 50.5010 -51.9270 67° East 584 672 34,000  Level FlightAware
01:20 50.5350 -51.8040 66° East 584 672 34,000  Level FlightAware
01:20 50.5670 -51.6840 67° East 584 672 34,000  Level FlightAware
01:21 50.5990 -51.5640 67° East 584 672 34,000  Level FlightAware
01:21 50.6310 -51.4440 66° East 584 672 34,000  Level FlightAware
01:22 50.6650 -51.3210 66° East 584 672 34,000  Level FlightAware
01:23 50.6980 -51.1970 67° East 584 672 34,000  Level FlightAware
01:23 50.7300 -51.0770 67° East 584 672 34,000  Level FlightAware
01:24 50.7620 -50.9570 67° East 584 672 34,000  Level FlightAware
01:24 50.7950 -50.8360 67° East 584 672 34,000  Level FlightAware
01:25 50.8270 -50.7160 67° East 584 672 34,000  Level FlightAware
01:26 50.8590 -50.5950 67° East 584 672 34,000  Level FlightAware
01:26 50.8920 -50.4750 66° East 584 672 34,000  Level FlightAware
01:27 50.9240 -50.3540 67° East 584 672 34,000 -120 Level FlightAware
01:27 51.0500 -49.7833 67° East 590 679 33,900 -120 Descending Gander Center
01:28 51.1167 -49.5500 65° Northeast 590 679 33,900  Level Gander Center
01:29 51.1833 -49.4000 55° Northeast 590 679 33,900  Level Gander Center
01:31 51.2693 -49.1607 60° Northeast  Level FlightAware Approximate
01:37 51.0000 -50.0000 60° Northeast 595 685 34,000  Level ETMS Enhanced Traffic Management System
01:38 51.7678 -47.7267 60° Northeast  Level FlightAware Approximate
01:39 51.8376 -47.5193 61° Northeast  Level FlightAware Approximate
01:40 51.9070 -47.3113 62° Northeast  Level FlightAware Approximate
01:41 51.9761 -47.1026 62° Northeast  Level FlightAware Approximate
01:42 52.0448 -46.8932 62° Northeast  Level FlightAware Approximate
01:43 52.2701 -46.2606 63° Northeast 595 685 34,000  Level FlightAware Transoceanic
01:44 52.3454 -46.0199 63° Northeast 595 685 34,000  Level FlightAware Transoceanic
01:45 52.4203 -45.7784 63° Northeast 595 685 34,000  Level FlightAware Transoceanic
01:46 52.4947 -45.5361 63° Northeast 595 685 34,000  Level FlightAware Transoceanic
01:47 52.5686 -45.2929 64° Northeast 595 685 34,000  Level FlightAware Transoceanic
01:48 52.6419 -45.0490 64° Northeast 595 685 34,000  Level FlightAware Transoceanic
01:49 52.7148 -44.8042 64° Northeast 595 685 34,000  Level FlightAware Transoceanic
01:50 52.7872 -44.5586 64° Northeast 595 685 34,000  Level FlightAware Transoceanic
01:51 52.8591 -44.3122 64° Northeast 595 685 34,000  Level FlightAware Transoceanic
01:52 52.9304 -44.0650 65° Northeast 595 685 34,000  Level FlightAware Transoceanic
01:53 53.0013 -43.8170 65° Northeast 595 685 34,000  Level FlightAware Transoceanic
01:54 53.0716 -43.5681 65° Northeast 595 685 34,000  Level FlightAware Transoceanic
01:55 53.1414 -43.3185 65° Northeast 595 685 34,000  Level FlightAware Transoceanic
01:56 53.2107 -43.0680 65° Northeast 595 685 34,000  Level FlightAware Transoceanic
01:57 53.2794 -42.8168 66° East 595 685 34,000  Level FlightAware Transoceanic
01:58 53.3476 -42.5647 66° East 595 685 34,000  Level FlightAware Transoceanic
01:59 53.4153 -42.3118 66° East 595 685 34,000  Level FlightAware Transoceanic
02:00 53.4824 -42.0581 66° East 595 685 34,000  Level FlightAware Transoceanic
02:01 53.5491 -41.8036 66° East 595 685 34,000  Level FlightAware Transoceanic
02:02 53.6151 -41.5484 67° East 595 685 34,000  Level FlightAware Transoceanic
02:03 53.6807 -41.2923 67° East 595 685 34,000  Level FlightAware Transoceanic
02:04 53.7456 -41.0354 67° East 595 685 34,000  Level FlightAware Transoceanic
02:05 53.8101 -40.7777 67° East 595 685 34,000  Level FlightAware Transoceanic
02:06 53.8739 -40.5193 67° East 595 685 34,000  Level FlightAware Transoceanic
02:07 53.9372 -40.2600 68° East 595 685 34,000  Level FlightAware Transoceanic
02:08 53.9927 -40.0304 68° East  Level FlightAware Approximate
02:09 54.0477 -39.8002 68° East  Level FlightAware Approximate
02:10 54.0253 -39.8224 76° East  Level FlightAware Approximate
02:10 54.0000 -40.0000 76° East 543 625 34,000  Level ETMS Enhanced Traffic Management System
02:11 54.0593 -39.5806 76° East  Level FlightAware Approximate
02:12 54.0928 -39.3383 77° East  Level FlightAware Approximate
02:13 54.1258 -39.0957 77° East  Level FlightAware Approximate
02:14 54.1583 -38.8527 77° East  Level FlightAware Approximate
02:15 54.1903 -38.6094 77° East  Level FlightAware Approximate
02:16 54.2718 -37.9915 78° East 543 625 34,000  Level FlightAware Transoceanic
02:17 54.3035 -37.7387 78° East 543 625 34,000  Level FlightAware Transoceanic
02:18 54.3345 -37.4854 78° East 543 625 34,000  Level FlightAware Transoceanic
02:19 54.3651 -37.2318 78° East 543 625 34,000  Level FlightAware Transoceanic
02:20 54.3951 -36.9778 79° East 543 625 34,000  Level FlightAware Transoceanic
02:21 54.4246 -36.7234 79° East 543 625 34,000  Level FlightAware Transoceanic
02:22 54.4536 -36.4686 79° East 543 625 34,000  Level FlightAware Transoceanic
02:23 54.4820 -36.2135 79° East 543 625 34,000  Level FlightAware Transoceanic
02:24 54.5099 -35.9581 79° East 543 625 34,000  Level FlightAware Transoceanic
02:25 54.5372 -35.7023 80° East 543 625 34,000  Level FlightAware Transoceanic
02:26 54.5640 -35.4462 80° East 543 625 34,000  Level FlightAware Transoceanic
02:27 54.5903 -35.1897 80° East 543 625 34,000  Level FlightAware Transoceanic
02:28 54.6160 -34.9329 80° East 543 625 34,000  Level FlightAware Transoceanic
02:29 54.6412 -34.6758 81° East 543 625 34,000  Level FlightAware Transoceanic
02:30 54.6658 -34.4183 81° East 543 625 34,000  Level FlightAware Transoceanic
02:31 54.6899 -34.1606 81° East 543 625 34,000  Level FlightAware Transoceanic
02:32 54.7134 -33.9025 81° East 543 625 34,000  Level FlightAware Transoceanic
02:33 54.7364 -33.6442 81° East 543 625 34,000  Level FlightAware Transoceanic
02:34 54.7588 -33.3856 82° East 543 625 34,000  Level FlightAware Transoceanic
02:35 54.7807 -33.1267 82° East 543 625 34,000  Level FlightAware Transoceanic
02:36 54.8020 -32.8675 82° East 543 625 34,000  Level FlightAware Transoceanic
02:37 54.8228 -32.6080 82° East 543 625 34,000  Level FlightAware Transoceanic
02:38 54.8430 -32.3483 82° East 543 625 34,000  Level FlightAware Transoceanic
02:39 54.8627 -32.0883 83° East 543 625 34,000  Level FlightAware Transoceanic
02:40 54.8818 -31.8281 83° East 543 625 34,000  Level FlightAware Transoceanic
02:41 54.9004 -31.5676 83° East 543 625 34,000  Level FlightAware Transoceanic
02:42 54.9184 -31.3069 83° East 543 625 34,000  Level FlightAware Transoceanic
02:43 54.9358 -31.0459 83° East 543 625 34,000  Level FlightAware Transoceanic
02:44 54.9527 -30.7848 84° East 543 625 34,000  Level FlightAware Transoceanic
02:45 54.9690 -30.5234 84° East 543 625 34,000  Level FlightAware Transoceanic
02:46 54.9848 -30.2618 84° East 543 625 34,000  Level FlightAware Transoceanic
02:47 54.9995 -30.0086 84° East  Level FlightAware Approximate
02:48 55.0137 -29.7552 84° East  Level FlightAware Approximate
02:49 55.0095 -29.7632 86° East  Level FlightAware Approximate
02:50 55.0192 -29.5091 86° East  Level FlightAware Approximate
02:50 55.0000 -30.0000 86° East 529 609 34,000  Level ETMS Enhanced Traffic Management System
02:51 55.0283 -29.2549 86° East  Level FlightAware Approximate
02:52 55.0369 -29.0021 87° East  Level FlightAware Approximate
02:53 55.0449 -28.7492 87° East  Level FlightAware Approximate
02:54 55.0525 -28.4962 87° East  Level FlightAware Approximate
02:55 55.0595 -28.2431 87° East  Level FlightAware Approximate
02:56 55.0728 -27.6956 88° East 529 609 34,000  Level FlightAware Transoceanic
02:57 55.0782 -27.4391 88° East 529 609 34,000  Level FlightAware Transoceanic
02:58 55.0831 -27.1825 88° East 529 609 34,000  Level FlightAware Transoceanic
02:59 55.0874 -26.9259 88° East 529 609 34,000  Level FlightAware Transoceanic
03:00 55.0912 -26.6692 89° East 529 609 34,000  Level FlightAware Transoceanic
03:01 55.0944 -26.4125 89° East 529 609 34,000  Level FlightAware Transoceanic
03:02 55.0971 -26.1557 89° East 529 609 34,000  Level FlightAware Transoceanic
03:03 55.0993 -25.8989 89° East 529 609 34,000  Level FlightAware Transoceanic
03:04 55.1009 -25.6421 89° East 529 609 34,000  Level FlightAware Transoceanic
03:05 55.1020 -25.3853 90° East 529 609 34,000  Level FlightAware Transoceanic
03:06 55.1025 -25.1284 90° East 529 609 34,000  Level FlightAware Transoceanic
03:07 55.1025 -24.8716 90° East 529 609 34,000  Level FlightAware Transoceanic
03:08 55.1020 -24.6147 90° East 529 609 34,000  Level FlightAware Transoceanic
03:09 55.1009 -24.3579 91° East 529 609 34,000  Level FlightAware Transoceanic
03:10 55.0993 -24.1011 91° East 529 609 34,000  Level FlightAware Transoceanic
03:11 55.0971 -23.8443 91° East 529 609 34,000  Level FlightAware Transoceanic
03:12 55.0944 -23.5875 91° East 529 609 34,000  Level FlightAware Transoceanic
03:13 55.0912 -23.3308 91° East 529 609 34,000  Level FlightAware Transoceanic
03:14 55.0874 -23.0741 92° East 529 609 34,000  Level FlightAware Transoceanic
03:15 55.0831 -22.8175 92° East 529 609 34,000  Level FlightAware Transoceanic
03:16 55.0782 -22.5609 92° East 529 609 34,000  Level FlightAware Transoceanic
03:17 55.0728 -22.3044 92° East 529 609 34,000  Level FlightAware Transoceanic
03:18 55.0669 -22.0480 92° East 529 609 34,000  Level FlightAware Transoceanic
03:19 55.0604 -21.7917 93° East 529 609 34,000  Level FlightAware Transoceanic
03:20 55.0534 -21.5354 93° East 529 609 34,000  Level FlightAware Transoceanic
03:21 55.0458 -21.2792 93° East 529 609 34,000  Level FlightAware Transoceanic
03:22 55.0377 -21.0231 93° East 529 609 34,000  Level FlightAware Transoceanic
03:23 55.0291 -20.7672 93° East 529 609 34,000  Level FlightAware Transoceanic
03:24 55.0199 -20.5113 94° East 529 609 34,000  Level FlightAware Transoceanic
03:25 55.0102 -20.2556 94° East 529 609 34,000  Level FlightAware Transoceanic
03:26 55.0001 -20.0032 94° East  Level FlightAware Approximate
03:27 54.9895 -19.7509 94° East  Level FlightAware Approximate
03:28 54.9676 -19.7595 103° East  Level FlightAware Approximate
03:29 54.9339 -19.5133 103° East  Level FlightAware Approximate
03:30 54.8997 -19.2674 104° East  Level FlightAware Approximate
03:31 54.8650 -19.0220 104° East  Level FlightAware Approximate
03:32 54.8298 -18.7770 104° East  Level FlightAware Approximate
03:33 54.7941 -18.5325 104° East  Level FlightAware Approximate
03:34 54.7579 -18.2883 104° East  Level FlightAware Approximate
03:35 54.7212 -18.0447 105° East  Level FlightAware Approximate
03:36 54.6841 -17.8014 105° East  Level FlightAware Approximate
03:37 54.6465 -17.5586 105° East  Level FlightAware Approximate
03:38 54.6083 -17.3163 105° East  Level FlightAware Approximate
03:39 54.5697 -17.0744 105° East  Level FlightAware Approximate
03:40 54.5306 -16.8330 106° East  Level FlightAware Approximate
03:41 54.4911 -16.5920 106° East  Level FlightAware Approximate
03:42 54.4510 -16.3515 106° East  Level FlightAware Approximate
03:43 54.4105 -16.1115 106° East  Level FlightAware Approximate
03:44 54.3695 -15.8720 106° East  Level FlightAware Approximate
03:45 54.3280 -15.6329 106° East  Level FlightAware Approximate
03:46 54.2860 -15.3943 107° East  Level FlightAware Approximate
03:47 54.2436 -15.1562 107° East  Level FlightAware Approximate
03:48 54.2007 -14.9186 107° East  Level FlightAware Approximate
03:49 54.1574 -14.6815 107° East  Level FlightAware Approximate
03:50 54.1136 -14.4449 107° East  Level FlightAware Approximate
03:51 54.0686 -14.2097 109° East  Level FlightAware Approximate
03:51 54.8150 -13.7420 108° East 541 623 34,000  Level FlightAware
03:52 54.0232 -13.9749 108° East  Level FlightAware Approximate
03:52 54.7660 -13.5600 115° Southeast 540 621 34,000  Level FlightAware
03:52 54.7280 -13.4240 116° Southeast 538 619 34,200 780 Climbing FlightAware
03:53 54.6970 -13.3080 115° Southeast 535 616 34,900 600 Climbing FlightAware
03:54 54.6590 -13.1700 115° Southeast 534 615 34,900  Level FlightAware
03:54 54.6180 -13.0210 115° Southeast 531 611 34,900 60 Level FlightAware
03:55 54.5860 -12.9040 115° Southeast 530 610 35,000 60 Climbing FlightAware
03:55 54.5490 -12.7720 116° Southeast 528 608 35,000  Level FlightAware
03:56 54.5080 -12.6240 115° Southeast 529 609 35,000  Level FlightAware
03:57 54.4590 -12.4510 116° Southeast 526 605 35,000  Level FlightAware
03:57 54.4240 -12.3260 116° Southeast 527 606 35,000  Level FlightAware
03:58 54.3800 -12.1720 116° Southeast 529 609 35,000  Level FlightAware
03:58 54.3460 -12.0550 116° Southeast 531 611 35,000  Level FlightAware
03:59 54.3070 -11.9190 116° Southeast 531 611 35,000  Level FlightAware
04:00 54.2690 -11.7870 116° Southeast 532 612 35,000  Level FlightAware
04:00 54.2310 -11.6560 116° Southeast 535 616 35,000  Level FlightAware
04:01 54.1910 -11.5200 117° Southeast 535 616 35,000  Level FlightAware
04:01 54.1470 -11.3740 117° Southeast 534 615 35,000  Level FlightAware
04:02 54.1130 -11.2580 117° Southeast 535 616 35,000  Level FlightAware
04:03 54.0750 -11.1290 117° Southeast 535 616 35,000  Level FlightAware
04:03 54.0350 -10.9970 117° Southeast 535 616 35,000  Level FlightAware
04:04 53.9970 -10.8690 117° Southeast 536 617 35,000  Level FlightAware
04:04 53.9550 -10.7320 117° Southeast 536 617 35,000  Level FlightAware
04:05 53.9160 -10.6040 117° Southeast 533 613 35,000  Level FlightAware
04:05 53.8750 -10.4720 118° Southeast 533 613 35,000  Level FlightAware
04:06 53.8360 -10.3430 117° Southeast 533 613 35,000  Level FlightAware
04:07 53.7950 -10.2110 118° Southeast 532 612 35,000  Level FlightAware
04:07 53.7490 -10.0650 118° Southeast 532 612 35,000  Level FlightAware
04:08 53.7130 -9.9520 118° Southeast 531 611 35,000  Level FlightAware
04:08 53.6740 -9.8260 118° Southeast 530 610 35,000  Level FlightAware
04:09 53.6320 -9.6960 119° Southeast 529 609 35,000  Level FlightAware
04:10 53.5860 -9.5520 118° Southeast 527 606 35,000  Level FlightAware
04:10 53.5510 -9.4430 118° Southeast 528 608 35,000  Level FlightAware
04:11 53.5110 -9.3160 118° Southeast 528 608 35,000  Level FlightAware
04:11 53.4630 -9.1700 119° Southeast 528 608 35,000  Level FlightAware
04:12 53.4170 -9.0270 118° Southeast 532 612 35,000  Level FlightAware
04:13 53.3750 -8.9000 119° Southeast 533 613 35,000 -120 Level FlightAware
04:13 53.3224 -8.7474 119° Southeast 498 573 34,900  Descending FlightAware UK
04:13 53.3340 -8.7760 119° Southeast 533 613 35,000 120 Climbing FlightAware
04:14 53.2850 -8.6290 119° Southeast 534 615 35,000  Level FlightAware
04:14 53.2440 -8.5040 119° Southeast 536 617 35,000  Level FlightAware
04:15 53.2010 -8.3770 119° Southeast 535 616 35,000 -120 Level FlightAware
04:16 53.1580 -8.2510 119° Southeast 533 613 34,900 -180 Descending FlightAware
04:16 53.1415 -8.2052 119° Southeast 508 585 34,900  Level FlightAware UK
04:16 53.1046 -8.0970 119° Southeast 508 585 34,900 120 Level FlightAware UK
04:16 53.1150 -8.1240 119° Southeast 530 610 35,000 120 Climbing FlightAware
04:17 53.0730 -8.0020 120° Southeast 527 606 35,000  Level FlightAware
04:17 53.0300 -7.8770 120° Southeast 526 605 35,000  Level FlightAware
04:18 52.9890 -7.7560 119° Southeast 526 605 35,000  Level FlightAware
04:19 52.9460 -7.6320 120° Southeast 522 601 35,000  Level FlightAware
04:19 52.9040 -7.5110 120° Southeast 522 601 35,000 -180 Level FlightAware
04:19 52.8867 -7.4663 120° Southeast 506 582 34,900 -240 Descending FlightAware UK
04:20 52.8501 -7.3622 120° Southeast 504 580 34,900  Level FlightAware UK
04:20 52.8610 -7.3890 120° Southeast 522 601 34,900 120 Level FlightAware
04:20 52.8190 -7.2710 120° Southeast 522 601 35,000  Climbing FlightAware
04:21 52.7630 -7.1110 120° Southeast 527 606 34,900 -120 Descending FlightAware
04:22 52.7210 -6.9940 121° Southeast 529 609 34,900  Level FlightAware
04:22 52.6740 -6.8620 120° Southeast 531 611 34,900 60 Level FlightAware
04:23 52.6340 -6.7510 121° Southeast 531 611 35,000  Climbing FlightAware
04:23 52.5756 -6.5922 121° Southeast 502 578 34,900  Descending FlightAware UK
04:23 52.5870 -6.6220 121° Southeast 531 611 35,000  Climbing FlightAware
04:24 52.5379 -6.4885 121° Southeast 502 578 34,900  Descending FlightAware UK
04:24 52.5440 -6.5040 121° Southeast 530 610 35,000  Climbing FlightAware
04:25 52.5030 -6.3900 121° Southeast 529 609 34,900  Descending FlightAware
04:25 52.4570 -6.2670 122° Southeast 528 608 35,000 60 Climbing FlightAware
04:26 52.4140 -6.1480 121° Southeast 529 609 35,000 -120 Level FlightAware
04:26 52.3670 -6.0210 121° Southeast 530 610 34,900  Descending FlightAware
04:27 52.3250 -5.9100 121° Southeast 531 611 35,000  Climbing FlightAware
04:27 52.3108 -5.8722 121° Southeast 498 573 34,900 -240 Descending FlightAware UK
04:27 52.2725 -5.7697 121° Southeast 510 587 34,900  Level FlightAware UK
04:27 52.2790 -5.7870 121° Southeast 530 610 34,900 120 Level FlightAware
04:28 52.2320 -5.6630 122° Southeast 529 609 35,000 60 Climbing FlightAware
04:29 52.1880 -5.5450 121° Southeast 526 605 35,000 -120 Level FlightAware
04:29 52.1470 -5.4370 122° Southeast 525 604 34,900  Descending FlightAware
04:30 52.1010 -5.3170 122° Southeast 524 603 35,000 60 Climbing FlightAware
04:30 52.0540 -5.1940 122° Southeast 522 601 35,000 -120 Level FlightAware
04:31 52.0150 -5.0790 119° Southeast 513 590 34,900  Descending FlightAware
04:31 51.9920 -4.9560 107° East 502 578 35,000 60 Climbing FlightAware
04:32 51.9760 -4.8160 100° East 500 575 35,000  Level FlightAware
04:33 51.9630 -4.7040 101° East 501 577 35,000 -120 Level FlightAware
04:33 51.9359 -4.5338 101° East 496 571 34,900 -180 Descending FlightAware UK
04:33 51.9470 -4.5710 101° East 501 577 34,900  Level FlightAware
04:34 51.9230 -4.4225 101° East 494 568 34,900 120 Level FlightAware UK
04:34 51.9310 -4.4310 101° East 502 578 35,000  Climbing FlightAware
04:34 51.9044 -4.2676 101° East 496 571 34,900 -180 Descending FlightAware UK
04:34 51.9150 -4.3000 101° East 504 580 34,900  Level FlightAware
04:35 51.9000 -4.1790 101° East 504 580 34,900 60 Level FlightAware
04:36 51.8840 -4.0490 101° East 503 579 35,000 60 Climbing FlightAware
04:36 51.8680 -3.9220 101° East 502 578 35,000  Level FlightAware
04:37 51.8520 -3.7930 101° East 503 579 35,000  Level FlightAware
04:37 51.8385 -3.6899 102° East 503 579 35,000  Level FlightAware ADS-B
04:38 51.8224 -3.5648 102° East 503 579 35,000  Level FlightAware ADS-B
04:38 51.8065 -3.4413 102° East 502 578 35,000 -120 Level FlightAware ADS-B
04:39 51.7915 -3.3260 102° East 503 579 34,900 -120 Descending FlightAware ADS-B
04:39 51.7755 -3.2051 102° East 501 577 34,900 60 Level FlightAware ADS-B
04:40 51.7599 -3.0877 102° East 500 575 35,000 60 Climbing FlightAware ADS-B
04:41 51.7431 -2.9610 102° East 500 575 35,000  Level FlightAware ADS-B
04:41 51.7281 -2.8499 102° East 501 577 35,000  Level FlightAware ADS-B
04:42 51.7134 -2.7406 102° East 502 578 35,000  Level FlightAware ADS-B
04:42 51.6977 -2.6266 102° East 504 580 35,000 -120 Level FlightAware ADS-B
04:43 51.6822 -2.5142 103° East 505 581 34,900  Descending FlightAware ADS-B
04:43 51.6657 -2.3956 103° East 504 580 35,000  Climbing FlightAware ADS-B
04:44 51.6497 -2.2810 103° East 503 579 34,900  Descending FlightAware ADS-B
04:44 51.6343 -2.1703 103° East 504 580 35,000  Climbing FlightAware ADS-B
04:45 51.6199 -2.0694 103° East 505 581 34,900  Descending FlightAware ADS-B
04:45 51.6089 -1.9542 99° East 501 577 35,000 60 Climbing FlightAware ADS-B
04:46 51.5996 -1.8430 98° East 503 579 35,000  Level FlightAware ADS-B
04:46 51.5892 -1.7241 98° East 503 579 35,000  Level FlightAware ADS-B
04:47 51.5780 -1.6068 99° East 505 581 35,000  Level FlightAware ADS-B
04:47 51.5668 -1.4939 99° East 506 582 35,000  Level FlightAware ADS-B
04:48 51.5549 -1.3745 99° East 507 583 35,000  Level FlightAware ADS-B
04:48 51.5433 -1.2609 99° East 509 586 35,000 -120 Level FlightAware ADS-B
04:49 51.5317 -1.1452 99° East 509 586 34,900 -120 Descending FlightAware ADS-B
04:49 51.5207 -1.0309 99° East 509 586 34,900 60 Level FlightAware ADS-B
04:50 51.5087 -0.9065 99° East 509 586 35,000 60 Climbing FlightAware ADS-B
04:50 51.4974 -0.7929 99° East 509 586 35,000  Level FlightAware ADS-B
04:51 51.4858 -0.6776 99° East 509 586 35,000  Level FlightAware ADS-B
04:51 51.4742 -0.5626 99° East 510 587 35,000  Level FlightAware ADS-B
04:52 51.4648 -0.4743 100° East 511 588 35,000  Level FlightAware ADS-B
04:52 51.4494 -0.3600 102° East 512 589 35,000  Level FlightAware ADS-B
04:53 51.4332 -0.2448 103° East 513 590 35,000 -120 Level FlightAware ADS-B
04:53 51.4176 -0.1313 102° East 512 589 34,900  Descending FlightAware ADS-B
04:54 51.3994 0.0042 102° East 510 587 35,000 60 Climbing FlightAware ADS-B
04:54 51.3833 0.1257 102° East 509 586 35,000  Level FlightAware ADS-B
04:55 51.3676 0.2392 102° East 508 585 35,000  Level FlightAware ADS-B
04:56 51.3498 0.3667 103° East 509 586 35,000 -120 Level FlightAware ADS-B
04:56 51.3318 0.4948 103° East 509 586 34,900  Descending FlightAware ADS-B
04:57 51.3156 0.6070 103° East 508 585 35,000 60 Climbing FlightAware ADS-B
04:57 51.2994 0.7207 103° East 507 583 35,000  Level FlightAware ADS-B
04:58 51.2816 0.8433 103° East 506 582 35,000  Level FlightAware ADS-B
04:58 51.2620 0.9920 102° East 507 583 35,000  Level FlightAware
04:59 51.2470 1.1280 100° East 504 580 35,000  Level FlightAware
05:00 51.2380 1.2560 96° East 506 582 35,000  Level FlightAware
05:00 51.2270 1.3900 97° East 509 586 35,000  Level FlightAware
05:01 51.2160 1.5150 98° East 509 586 35,000  Level FlightAware
05:01 51.2030 1.6500 99° East 509 586 35,000  Level FlightAware
05:02 51.1920 1.7690 98° East 510 587 35,000  Level FlightAware
05:03 51.1710 1.9130 103° East 514 592 35,000  Level FlightAware
05:03 51.1510 2.0270 103° East 514 592 35,000 -240 Level FlightAware
05:03 51.1369 2.0663 103° East 512 589 34,900 -180 Descending FlightAware UK
05:04 51.1143 2.1976 103° East 510 587 34,900 120 Level FlightAware UK
05:04 51.1260 2.1750 103° East 513 590 35,000 180 Climbing FlightAware
05:04 51.1070 2.2820 106° East 513 590 35,000  Level FlightAware
05:05 51.0830 2.4170 106° East 514 592 35,000  Level FlightAware
05:05 51.0630 2.5280 106° East 516 594 35,000  Level FlightAware
05:06 51.0360 2.6740 106° East 517 595 35,000  Level FlightAware
05:07 51.0130 2.7970 107° East 518 596 35,000  Level FlightAware
05:07 50.9870 2.9400 106° East 521 600 35,000  Level FlightAware
05:08 50.9660 3.0510 107° East 523 602 35,000  Level FlightAware
05:08 50.9410 3.1830 107° East 526 605 35,000  Level FlightAware
05:09 50.9180 3.3090 106° East 528 608 35,000  Level FlightAware
05:10 50.8920 3.4420 107° East 530 610 35,000  Level FlightAware
05:10 50.8680 3.5680 107° East 531 611 35,000  Level FlightAware
05:11 50.8480 3.6740 107° East 532 612 35,000  Level FlightAware
05:11 50.8140 3.8470 107° East 530 610 35,000  Level FlightAware
05:12 50.7920 3.9630 107° East 530 610 35,000 -120 Level FlightAware
05:13 50.7640 4.1030 107° East 529 609 34,900  Descending FlightAware
05:13 50.7340 4.2530 107° East 531 611 35,000  Climbing FlightAware
05:14 50.7110 4.3710 107° East 531 611 34,900  Descending FlightAware
05:14 50.6830 4.5080 108° East 531 611 35,000 60 Climbing FlightAware
05:15 50.6590 4.6300 107° East 532 612 35,000 -120 Level FlightAware
05:16 50.6300 4.7710 108° East 531 611 34,900  Descending FlightAware
05:16 50.6060 4.8880 108° East 530 610 35,000 60 Climbing FlightAware
05:17 50.5650 5.0170 117° Southeast 526 605 35,000  Level FlightAware
05:17 50.5170 5.1270 124° Southeast 526 605 35,000  Level FlightAware
05:18 50.4720 5.2340 123° Southeast 526 605 35,000  Level FlightAware
05:18 50.4260 5.3490 122° Southeast 526 605 35,000  Level FlightAware
05:19 50.3790 5.4670 122° Southeast 526 605 35,000  Level FlightAware
05:20 50.3320 5.5800 123° Southeast 525 604 35,000  Level FlightAware
05:20 50.2900 5.6770 124° Southeast 525 604 35,000  Level FlightAware
05:21 50.2400 5.7900 125° Southeast 526 605 35,000  Level FlightAware
05:21 50.1940 5.8980 124° Southeast 528 608 35,000  Level FlightAware
05:22 50.1440 6.0130 124° Southeast 530 610 35,000  Level FlightAware
05:22 50.1020 6.1100 124° Southeast 532 612 35,000  Level FlightAware
05:23 50.0480 6.2330 124° Southeast 534 615 35,000 -120 Level FlightAware
05:24 50.0030 6.3360 124° Southeast 534 615 34,900  Descending FlightAware
05:24 49.9530 6.4490 124° Southeast 533 613 35,000 60 Climbing FlightAware
05:25 49.9000 6.5700 124° Southeast 532 612 35,000  Level FlightAware
05:25 49.8520 6.6770 125° Southeast 535 616 35,000  Level FlightAware
05:26 49.7960 6.8010 125° Southeast 535 616 35,000  Level FlightAware
05:27 49.7380 6.9310 125° Southeast 535 616 35,000 -120 Level FlightAware
05:27 49.6910 7.0350 125° Southeast 531 611 34,900  Descending FlightAware
05:28 49.6380 7.1520 125° Southeast 529 609 35,000 60 Climbing FlightAware
05:29 49.5830 7.2710 125° Southeast 529 609 35,000 -120 Level FlightAware
05:29 49.5330 7.3820 125° Southeast 526 605 34,900  Descending FlightAware
05:30 49.4640 7.5300 126° Southeast 523 602 35,000 60 Climbing FlightAware
05:31 49.4130 7.6400 125° Southeast 521 600 35,000 -120 Level FlightAware
05:31 49.3540 7.7450 131° Southeast 516 594 34,900  Descending FlightAware
05:32 49.3030 7.8320 132° Southeast 518 596 35,000 60 Climbing FlightAware
05:32 49.2490 7.9200 133° Southeast 518 596 35,000  Level FlightAware
05:33 49.1770 8.0340 134° Southeast 518 596 35,000  Level FlightAware
05:34 49.1260 8.1160 134° Southeast 517 595 35,000  Level FlightAware
05:34 49.0660 8.2120 134° Southeast 517 595 35,000 -120 Level FlightAware
05:35 49.0050 8.3110 133° Southeast 517 595 34,900  Descending FlightAware
05:35 48.9530 8.3940 134° Southeast 514 592 35,000 60 Climbing FlightAware
05:36 48.8970 8.4850 133° Southeast 512 589 35,000  Level FlightAware
05:37 48.8340 8.5840 134° Southeast 512 589 35,000  Level FlightAware
05:37 48.7820 8.6660 134° Southeast 513 590 35,000  Level FlightAware
05:38 48.7230 8.7480 137° Southeast 504 580 35,000  Level FlightAware
05:38 48.6560 8.8290 141° Southeast 507 583 35,000 -120 Level FlightAware
05:39 48.5880 8.9130 141° Southeast 510 587 34,900 -120 Descending FlightAware
05:39 48.5300 8.9860 140° Southeast 510 587 34,900 60 Level FlightAware
05:40 48.4670 9.0640 141° Southeast 509 586 35,000  Climbing FlightAware
05:41 48.4000 9.1450 141° Southeast 512 589 34,900  Descending FlightAware
05:41 48.3340 9.2250 141° Southeast 511 588 35,000 60 Climbing FlightAware
05:42 48.2740 9.2980 141° Southeast 511 588 35,000  Level FlightAware
05:42 48.2050 9.3800 142° Southeast 510 587 35,000  Level FlightAware
05:43 48.1400 9.4590 141° Southeast 507 583 35,000  Level FlightAware
05:43 48.0810 9.5290 142° Southeast 503 579 35,000 -120 Level FlightAware
05:44 48.0180 9.6040 141° Southeast 498 573 34,900  Descending FlightAware
05:45 47.9590 9.6730 142° Southeast 497 572 35,000 60 Climbing FlightAware
05:45 47.8890 9.7720 137° Southeast 504 580 35,000  Level FlightAware
05:46 47.8310 9.8570 135° Southeast 502 578 35,000  Level FlightAware
05:46 47.7730 9.9430 135° Southeast 505 581 35,000 -120 Level FlightAware
05:47 47.7210 10.0220 134° Southeast 511 588 34,900  Descending FlightAware
05:48 47.6670 10.1030 135° Southeast 514 592 35,000 60 Climbing FlightAware
05:48 47.6050 10.1950 135° Southeast 514 592 35,000 -120 Level FlightAware
05:49 47.5480 10.2790 135° Southeast 514 592 34,900  Descending FlightAware
05:49 47.4900 10.3640 135° Southeast 514 592 35,000  Climbing FlightAware
05:50 47.4330 10.4460 136° Southeast 515 593 34,900  Descending FlightAware
05:51 47.3690 10.5390 135° Southeast 516 594 35,000  Climbing FlightAware
05:51 47.3100 10.6260 135° Southeast 517 595 34,900  Descending FlightAware
05:52 47.2470 10.7170 136° Southeast 516 594 35,000 60 Climbing FlightAware
05:52 47.1900 10.7990 136° Southeast 518 596 35,000 -120 Level FlightAware
05:53 47.1220 10.8970 136° Southeast 517 595 34,900 180 Descending FlightAware
05:54 47.0550 10.9930 136° Southeast 517 595 35,300 1,020 Climbing FlightAware
05:54 46.9970 11.0770 135° Southeast 513 590 36,200 1,320 Climbing FlightAware
05:55 46.9310 11.1710 136° Southeast 513 590 37,000 600 Climbing FlightAware
05:55 46.8670 11.2610 136° Southeast 519 597 37,000  Level FlightAware
05:56 46.8000 11.3560 136° Southeast 519 597 37,000  Level FlightAware
05:57 46.7380 11.4440 136° Southeast 517 595 37,000  Level FlightAware
05:57 46.6830 11.5210 136° Southeast 517 595 37,000  Level FlightAware
05:58 46.6240 11.6040 136° Southeast 517 595 37,000  Level FlightAware
05:58 46.5690 11.6810 136° Southeast 518 596 37,000  Level FlightAware
05:59 46.5090 11.7650 136° Southeast 519 597 37,000  Level FlightAware
05:59 46.4400 11.8600 136° Southeast 521 600 37,000 -120 Level FlightAware
06:00 46.3840 11.9650 128° Southeast 544 626 36,900  Descending FlightAware
06:01 46.3490 12.0540 120° Southeast 543 625 37,000  Climbing FlightAware
06:01 46.2970 12.1890 119° Southeast 547 629 36,900  Descending FlightAware
06:02 46.2670 12.2950 112° Southeast 557 641 37,000 60 Climbing FlightAware
06:02 46.2360 12.4150 110° East 557 641 37,000  Level FlightAware
06:03 46.2020 12.5360 112° Southeast 550 633 37,000  Level FlightAware
06:04 46.1520 12.6620 120° Southeast 543 625 37,000  Level FlightAware
06:04 46.1060 12.7470 128° Southeast 530 610 37,000 -120 Level FlightAware
06:05 46.0490 12.8400 131° Southeast 534 615 36,900  Descending FlightAware
06:05 45.9920 12.9320 132° Southeast 533 613 37,000 60 Climbing FlightAware
06:06 45.9420 13.0130 132° Southeast 532 612 37,000  Level FlightAware
06:07 45.8620 13.1400 132° Southeast 532 612 37,000  Level FlightAware
06:07 45.7940 13.2480 132° Southeast 531 611 37,000  Level FlightAware
06:08 45.7380 13.3370 132° Southeast 530 610 37,000  Level FlightAware
06:08 45.6810 13.4320 131° Southeast 531 611 37,000  Level FlightAware
06:09 45.6250 13.5290 130° Southeast 531 611 37,000  Level FlightAware
06:10 45.5790 13.6070 130° Southeast 530 610 37,000  Level FlightAware
06:10 45.5120 13.7200 130° Southeast 528 608 37,000  Level FlightAware
06:11 45.4820 13.7680 132° Southeast 528 608 37,000  Level FlightAware
06:11 45.4010 13.9030 130° Southeast 526 605 37,000  Level FlightAware
06:12 45.3510 13.9860 131° Southeast 525 604 37,000  Level FlightAware
06:13 45.2940 14.0800 131° Southeast 524 603 37,000  Level FlightAware
06:13 45.2340 14.1780 131° Southeast 524 603 37,000  Level FlightAware
06:14 45.1670 14.2890 131° Southeast 523 602 37,000  Level FlightAware
06:14 45.1110 14.3810 131° Southeast 519 597 37,000 -120 Level FlightAware
06:15 45.0650 14.4560 131° Southeast 519 597 36,900  Descending FlightAware
06:16 45.0100 14.5450 131° Southeast 518 596 37,000 60 Climbing FlightAware
06:16 44.9480 14.6450 131° Southeast 524 603 37,000  Level FlightAware
06:17 44.8880 14.7430 131° Southeast 524 603 37,000  Level FlightAware
06:17 44.8260 14.8410 132° Southeast 524 603 37,000  Level FlightAware
06:18 44.7680 14.9350 131° Southeast 519 597 37,000  Level FlightAware
06:19 44.7000 15.0430 132° Southeast 521 600 37,000  Level FlightAware
06:19 44.6510 15.1220 131° Southeast 523 602 37,000  Level FlightAware
06:20 44.5740 15.2470 131° Southeast 524 603 37,000  Level FlightAware
06:21 44.4990 15.3640 132° Southeast 534 615 37,000  Level FlightAware
06:21 44.4560 15.4310 132° Southeast 535 616 37,000  Level FlightAware
06:22 44.3790 15.5520 132° Southeast 537 618 37,000  Level FlightAware
06:23 44.3250 15.6370 132° Southeast 537 618 37,000  Level FlightAware
06:23 44.2690 15.7240 132° Southeast 538 619 37,000 -120 Level FlightAware
06:24 44.2180 15.8030 132° Southeast 534 615 36,900  Descending FlightAware
06:24 44.1490 15.9100 132° Southeast 536 617 37,000 60 Climbing FlightAware
06:25 44.0890 16.0040 132° Southeast 537 618 37,000 -120 Level FlightAware
06:26 44.0170 16.1150 132° Southeast 544 626 36,900  Descending FlightAware
06:26 43.9570 16.2070 132° Southeast 545 627 37,000 60 Climbing FlightAware
06:27 43.9120 16.2760 132° Southeast 539 620 37,000  Level FlightAware
06:27 43.8440 16.3800 132° Southeast 545 627 37,000  Level FlightAware
06:28 43.7790 16.4790 132° Southeast 543 625 37,000 -120 Level FlightAware
06:29 43.7200 16.5690 132° Southeast 540 621 36,900  Descending FlightAware
06:29 43.6660 16.6510 132° Southeast 540 621 37,000 60 Climbing FlightAware
06:30 43.6040 16.7450 132° Southeast 540 621 37,000  Level FlightAware
06:30 43.5470 16.8310 132° Southeast 542 624 37,000  Level FlightAware
06:31 43.4850 16.9240 133° Southeast 544 626 37,000 -120 Level FlightAware
06:31 43.4300 17.0060 133° Southeast 545 627 36,900  Descending FlightAware
06:32 43.3690 17.0980 132° Southeast 545 627 37,000 60 Climbing FlightAware
06:33 43.3060 17.1910 133° Southeast 545 627 37,000  Level FlightAware
06:33 43.2450 17.2820 133° Southeast 547 629 37,000 -120 Level FlightAware
06:34 43.1880 17.3660 133° Southeast 547 629 36,900  Descending FlightAware
06:34 43.1260 17.4580 133° Southeast 545 627 37,000 60 Climbing FlightAware
06:35 43.0650 17.5480 133° Southeast 544 626 37,000  Level FlightAware
06:36 43.0050 17.6350 133° Southeast 544 626 37,000  Level FlightAware
06:36 42.9470 17.7200 133° Southeast 544 626 37,000  Level FlightAware
06:37 42.8860 17.8070 134° Southeast 540 621 37,000  Level FlightAware
06:37 42.8210 17.8950 135° Southeast 538 619 37,000  Level FlightAware
06:38 42.7690 17.9720 133° Southeast 541 623 37,000  Level FlightAware
06:38 42.7070 18.0670 132° Southeast 541 623 37,000  Level FlightAware
06:39 42.6510 18.1530 132° Southeast 535 616 37,000  Level FlightAware
06:40 42.5920 18.2430 132° Southeast 535 616 37,000  Level FlightAware
06:40 42.5450 18.3140 132° Southeast 536 617 37,000  Level FlightAware
06:41 42.4740 18.4230 131° Southeast 540 621 37,000  Level FlightAware
06:41 42.4140 18.5130 132° Southeast 540 621 37,000  Level FlightAware
06:42 42.3620 18.5920 132° Southeast 541 623 37,000  Level FlightAware
06:43 42.3010 18.6840 132° Southeast 542 624 37,000  Level FlightAware
06:43 42.2390 18.7750 133° Southeast 539 620 37,000  Level FlightAware
06:44 42.1780 18.8480 138° Southeast 534 615 37,000  Level FlightAware
06:44 42.1190 18.9160 139° Southeast 534 615 37,000  Level FlightAware
06:45 42.0170 19.0310 140° Southeast 531 611 37,000  Level FlightAware
06:46 41.9530 19.1040 140° Southeast 531 611 37,000  Level FlightAware
06:46 41.9330 19.1270 139° Southeast 530 610 37,000  Level FlightAware
06:47 41.8080 19.2690 140° Southeast 527 606 37,000  Level FlightAware
06:48 41.7410 19.3450 140° Southeast 525 604 37,000  Level FlightAware
06:48 41.6740 19.4210 140° Southeast 525 604 37,000  Level FlightAware
06:49 41.6060 19.5150 134° Southeast 534 615 37,000  Level FlightAware
06:49 41.5470 19.6110 129° Southeast 533 613 37,000  Level FlightAware
06:50 41.4920 19.6890 133° Southeast 530 610 37,000  Level FlightAware
06:51 41.4300 19.7730 135° Southeast 529 609 37,000  Level FlightAware
06:51 41.3680 19.8540 136° Southeast 528 608 37,000  Level FlightAware
06:52 41.3120 19.9260 136° Southeast 528 608 37,000  Level FlightAware
06:52 41.2550 19.9970 137° Southeast 527 606 37,000  Level FlightAware
06:53 41.1880 20.0820 136° Southeast 527 606 37,000  Level FlightAware
06:54 41.1230 20.1630 137° Southeast 527 606 37,000  Level FlightAware
06:54 41.0490 20.2550 137° Southeast 527 606 37,000  Level FlightAware
06:55 40.9810 20.3390 137° Southeast 527 606 37,000  Level FlightAware
06:55 40.9250 20.4090 137° Southeast 527 606 37,000  Level FlightAware
06:56 40.8650 20.4840 137° Southeast 528 608 37,000  Level FlightAware
06:57 40.7970 20.5690 137° Southeast 527 606 37,000  Level FlightAware
06:57 40.7330 20.6470 137° Southeast 527 606 37,000  Level FlightAware
06:58 40.6640 20.7330 137° Southeast 525 604 37,000  Level FlightAware
06:58 40.6010 20.8100 137° Southeast 524 603 37,000  Level FlightAware
06:59 40.5340 20.8920 137° Southeast 524 603 37,000  Level FlightAware
07:00 40.4790 20.9590 137° Southeast 525 604 37,000  Level FlightAware
07:00 40.4130 21.0400 137° Southeast 527 606 37,000  Level FlightAware
07:01 40.3480 21.1180 138° Southeast 526 605 37,000  Level FlightAware
07:01 40.2860 21.1940 137° Southeast 525 604 37,000  Level FlightAware
07:02 40.2260 21.2660 137° Southeast 526 605 37,000  Level FlightAware
07:02 40.1670 21.3360 138° Southeast 526 605 37,000  Level FlightAware
07:03 40.0970 21.4210 137° Southeast 527 606 37,000  Level FlightAware
07:04 40.0370 21.4930 137° Southeast 529 609 37,000  Level FlightAware
07:04 39.9710 21.5710 138° Southeast 530 610 37,000  Level FlightAware
07:05 39.9130 21.6410 137° Southeast 529 609 37,000  Level FlightAware
07:05 39.8450 21.7210 138° Southeast 529 609 37,000  Level FlightAware
07:06 39.7900 21.7850 138° Southeast 530 610 37,000  Level FlightAware
07:07 39.7050 21.8860 138° Southeast 532 612 37,000  Level FlightAware
07:07 39.6400 21.9630 138° Southeast 532 612 37,000  Level FlightAware
07:08 39.5830 22.0300 138° Southeast 532 612 37,000  Level FlightAware
07:08 39.5170 22.1070 138° Southeast 533 613 37,000  Level FlightAware
07:09 39.4470 22.1890 138° Southeast 533 613 37,000  Level FlightAware
07:10 39.3840 22.2620 138° Southeast 534 615 37,000  Level FlightAware
07:10 39.3220 22.3330 138° Southeast 535 616 37,000  Level FlightAware
07:11 39.2500 22.4170 138° Southeast 534 615 37,000  Level FlightAware
07:11 39.1910 22.4840 139° Southeast 534 615 37,000  Level FlightAware
07:12 39.1260 22.5590 138° Southeast 533 613 37,000  Level FlightAware
07:13 39.0570 22.6390 138° Southeast 534 615 37,000  Level FlightAware
07:13 38.9890 22.7160 139° Southeast 535 616 37,000 -120 Level FlightAware
07:14 38.9230 22.7910 139° Southeast 536 617 36,900  Descending FlightAware
07:14 38.8570 22.8670 138° Southeast 536 617 37,000 60 Climbing FlightAware
07:15 38.7920 22.9410 138° Southeast 534 615 37,000  Level FlightAware
07:16 38.7270 23.0130 139° Southeast 535 616 37,000 -120 Level FlightAware
07:16 38.6620 23.0870 138° Southeast 535 616 36,900  Descending FlightAware
07:17 38.5960 23.1610 139° Southeast 534 615 37,000 60 Climbing FlightAware
07:17 38.5220 23.2440 139° Southeast 532 612 37,000  Level FlightAware
07:18 38.4670 23.3060 139° Southeast 531 611 37,000  Level FlightAware
07:19 38.4020 23.3780 139° Southeast 530 610 37,000 -120 Level FlightAware
07:19 38.3290 23.4600 139° Southeast 521 600 36,900  Descending FlightAware
07:20 38.2730 23.5220 139° Southeast 518 596 37,000 60 Climbing FlightAware
07:20 38.2070 23.5950 139° Southeast 517 595 37,000  Level FlightAware
07:21 38.1440 23.6650 139° Southeast 515 593 37,000  Level FlightAware
07:21 38.0800 23.7360 139° Southeast 515 593 37,000 -120 Level FlightAware
07:22 38.0180 23.8050 139° Southeast 514 592 36,900 -120 Descending FlightAware
07:23 37.9600 23.8870 132° Southeast 515 593 36,900 60 Level FlightAware
07:23 37.9150 23.9730 124° Southeast 517 595 37,000 60 Climbing FlightAware
07:24 37.8580 24.0860 123° Southeast 522 601 37,000  Level FlightAware
07:24 37.8110 24.1790 123° Southeast 523 602 37,000  Level FlightAware
07:25 37.7720 24.2570 122° Southeast 521 600 37,000  Level FlightAware
07:26 37.7260 24.3480 123° Southeast 521 600 37,000  Level FlightAware
07:26 37.6660 24.4650 123° Southeast 525 604 37,000  Level FlightAware
07:27 37.6210 24.5520 123° Southeast 526 605 37,000  Level FlightAware
07:28 37.5730 24.6450 123° Southeast 527 606 37,000  Level FlightAware
07:28 37.5230 24.7420 123° Southeast 527 606 37,000 -120 Level FlightAware
07:29 37.4790 24.8260 123° Southeast 528 608 36,900  Descending FlightAware
07:29 37.4290 24.9220 123° Southeast 526 605 37,000 60 Climbing FlightAware
07:30 37.3840 25.0090 123° Southeast 525 604 37,000  Level FlightAware
07:30 37.3430 25.0890 123° Southeast 525 604 37,000  Level FlightAware
07:31 37.2940 25.1830 123° Southeast 525 604 37,000  Level FlightAware
07:32 37.2480 25.2700 124° Southeast 525 604 37,000 -120 Level FlightAware
07:32 37.2020 25.3590 123° Southeast 523 602 36,900  Descending FlightAware
07:33 37.1490 25.4590 124° Southeast 521 600 37,000 60 Climbing FlightAware
07:33 37.1070 25.5390 123° Southeast 518 596 37,000  Level FlightAware
07:34 37.0590 25.6300 123° Southeast 517 595 37,000  Level FlightAware
07:35 37.0120 25.7180 124° Southeast 515 593 37,000  Level FlightAware
07:35 36.9650 25.8060 124° Southeast 513 590 37,000  Level FlightAware
07:36 36.9230 25.8850 124° Southeast 512 589 37,000  Level FlightAware
07:36 36.8730 25.9790 124° Southeast 511 588 37,000  Level FlightAware
07:37 36.8250 26.0680 124° Southeast 510 587 37,000  Level FlightAware
07:37 36.7840 26.1450 124° Southeast 510 587 37,000  Level FlightAware
07:38 36.7360 26.2330 124° Southeast 510 587 37,000  Level FlightAware
07:39 36.6890 26.3210 124° Southeast 509 586 37,000  Level FlightAware
07:39 36.6410 26.4090 124° Southeast 509 586 37,000  Level FlightAware
07:40 36.5990 26.4870 124° Southeast 511 588 37,000  Level FlightAware
07:40 36.5520 26.5750 124° Southeast 513 590 37,000  Level FlightAware
07:41 36.5040 26.6620 124° Southeast 514 592 37,000  Level FlightAware
07:42 36.4610 26.7410 124° Southeast 514 592 37,000  Level FlightAware
07:42 36.4100 26.8350 124° Southeast 513 590 37,000  Level FlightAware
07:43 36.3700 26.9080 124° Southeast 513 590 37,000  Level FlightAware
07:43 36.3230 26.9950 124° Southeast 513 590 37,000  Level FlightAware
07:44 36.2820 27.0690 124° Southeast 513 590 37,000  Level FlightAware
07:44 36.2310 27.1610 124° Southeast 513 590 37,000  Level FlightAware
07:45 36.1750 27.2630 124° Southeast 513 590 37,000  Level FlightAware
07:46 36.1340 27.3380 124° Southeast 513 590 37,000  Level FlightAware
07:46 36.0940 27.4120 124° Southeast 513 590 37,000  Level FlightAware
07:47 36.0530 27.4870 124° Southeast 513 590 37,000  Level FlightAware
07:48 36.0120 27.5610 124° Southeast 513 590 37,000  Level FlightAware
07:48 35.9710 27.6370 124° Southeast 513 590 37,000  Level FlightAware
07:49 35.9300 27.7120 124° Southeast 513 590 37,000  Level FlightAware
07:49 35.8890 27.7860 124° Southeast 513 590 37,000  Level FlightAware
07:50 35.8490 27.8600 124° Southeast 513 590 37,000  Level FlightAware
07:51 35.8080 27.9350 124° Southeast 513 590 37,000  Level FlightAware
07:51 35.6830 28.1400 127° Southeast 507 583 37,000  Level FlightAware
07:52 35.6320 28.2280 125° Southeast 505 581 37,000  Level FlightAware
07:52 35.5870 28.3080 125° Southeast 504 580 37,000  Level FlightAware
07:53 35.5390 28.3920 125° Southeast 504 580 37,000  Level FlightAware
07:54 35.4900 28.4770 125° Southeast 505 581 37,000  Level FlightAware
07:54 35.4420 28.5610 125° Southeast 505 581 37,000  Level FlightAware
07:55 35.4000 28.6350 125° Southeast 505 581 37,000  Level FlightAware
07:55 35.3420 28.7350 125° Southeast 506 582 37,000  Level FlightAware
07:56 35.2940 28.8180 125° Southeast 505 581 37,000  Level FlightAware
07:57 35.2330 28.9240 125° Southeast 505 581 37,000  Level FlightAware
07:57 35.1920 28.9960 125° Southeast 505 581 37,000  Level FlightAware
07:58 35.1510 29.0670 125° Southeast 505 581 37,000  Level FlightAware
07:59 35.1100 29.1390 125° Southeast 505 581 37,000  Level FlightAware
07:59 35.0690 29.2110 125° Southeast 505 581 37,000  Level FlightAware
08:00 35.0290 29.2800 125° Southeast 505 581 37,000  Level FlightAware
08:00 34.9880 29.3520 125° Southeast 505 581 37,000  Level FlightAware
08:01 34.9470 29.4230 125° Southeast 505 581 37,000 -120 Level FlightAware
08:01 34.8580 29.5630 128° Southeast 502 578 36,900  Descending FlightAware
08:02 34.8140 29.6380 126° Southeast 502 578 37,000 60 Climbing FlightAware
08:03 34.7640 29.7220 126° Southeast 502 578 37,000  Level FlightAware
08:03 34.7180 29.7990 126° Southeast 503 579 37,000  Level FlightAware
08:04 34.6690 29.8810 126° Southeast 503 579 37,000  Level FlightAware
08:04 34.6330 29.9440 125° Southeast 503 579 37,000  Level FlightAware
08:05 34.5920 30.0150 125° Southeast 503 579 37,000 -120 Level FlightAware
08:05 34.5430 30.1140 121° Southeast 739 850 36,900  Descending FlightAware
08:06 34.4730 30.2600 120° Southeast 503 579 37,000 60 Climbing FlightAware
08:07 34.4280 30.3530 120° Southeast 502 578 37,000 -120 Level FlightAware
08:08 34.3820 30.4490 120° Southeast 506 582 36,900  Descending FlightAware
08:08 34.3430 30.5310 120° Southeast 505 581 37,000 60 Climbing FlightAware
08:09 34.3010 30.6150 121° Southeast 505 581 37,000  Level FlightAware
08:09 34.2610 30.6980 120° Southeast 504 580 37,000 -120 Level FlightAware
08:10 34.2210 30.7810 120° Southeast 503 579 36,900  Descending FlightAware
08:10 34.1770 30.8700 121° Southeast 504 580 37,000 60 Climbing FlightAware
08:11 34.1360 30.9550 120° Southeast 506 582 37,000  Level FlightAware
08:12 34.0940 31.0400 121° Southeast 508 585 37,000  Level FlightAware
08:12 34.0500 31.1290 121° Southeast 512 589 37,000  Level FlightAware
08:13 33.9960 31.2390 121° Southeast 512 589 37,000  Level FlightAware
08:13 33.9570 31.3170 121° Southeast 516 594 37,000  Level FlightAware
08:14 33.9170 31.3980 121° Southeast 518 596 37,000  Level FlightAware
08:15 33.8700 31.4930 121° Southeast 520 598 37,000  Level FlightAware
08:15 33.8270 31.5790 121° Southeast 520 598 37,000  Level FlightAware
08:16 33.7830 31.6670 121° Southeast 521 600 37,000  Level FlightAware
08:16 33.7390 31.7570 120° Southeast 521 600 37,000  Level FlightAware
08:17 33.6950 31.8440 121° Southeast 525 604 37,000  Level FlightAware
08:18 33.6500 31.9320 122° Southeast 525 604 37,000  Level FlightAware
08:18 33.6050 32.0210 121° Southeast 525 604 37,000  Level FlightAware
08:19 33.5570 32.1160 121° Southeast 524 603 37,000  Level FlightAware
08:19 33.5110 32.2080 121° Southeast 523 602 37,000  Level FlightAware
08:20 33.4680 32.2940 121° Southeast 520 598 37,000  Level FlightAware
08:21 33.4240 32.3820 121° Southeast 519 597 37,000  Level FlightAware
08:21 33.3880 32.4530 121° Southeast 518 596 37,000  Level FlightAware
08:22 33.3420 32.5450 121° Southeast 516 594 37,000 -120 Level FlightAware
08:22 33.2940 32.6380 122° Southeast 514 592 36,900 -960 Descending FlightAware
08:23 33.2490 32.7280 121° Southeast 500 575 35,900 -2,400 Descending FlightAware
08:23 33.2160 32.7920 122° Southeast 507 583 34,300 -2,280 Descending FlightAware
08:24 33.1550 32.9110 121° Southeast 502 578 32,700 -2,400 Descending FlightAware
08:25 33.1000 33.0200 121° Southeast 523 602 30,300 -3,900 Descending FlightAware
08:26 33.0510 33.1150 122° Southeast 525 604 27,800 -2,580 Descending FlightAware
08:27 32.9960 33.2580 115° Southeast 511 588 26,600 -1,380 Descending FlightAware
08:27 32.9940 33.3850 91° East 463 533 25,400 -1,800 Descending FlightAware
08:28 32.9880 33.4790 94° East 412 474 24,100 -1,800 Descending FlightAware
08:29 32.9840 33.5550 94° East 393 452 23,300 -1,500 Descending FlightAware
08:29 32.9800 33.6240 94° East 384 442 22,400 -1,800 Descending FlightAware
08:30 32.9750 33.6950 95° East 375 432 21,300 -1,860 Descending FlightAware
08:30 32.9700 33.7680 95° East 366 421 20,300 -1,680 Descending FlightAware
08:31 32.9650 33.8400 95° East 356 410 19,300 -1,800 Descending FlightAware
08:32 32.9560 33.9070 99° East 352 405 18,200 -1,920 Descending FlightAware
08:32 32.9460 33.9270 121° Southeast 353 406 17,800 -1,980 Descending FlightAware
08:32 32.9260 33.9500 136° Southeast 355 409 17,300 -1,920 Descending FlightAware
08:32 32.9100 33.9610 150° Southeast 355 409 16,900 -1,800 Descending FlightAware
08:33 32.8550 33.9880 158° South 348 400 15,900 -1,740 Descending FlightAware
08:33 32.8020 34.0130 158° South 340 391 14,900 -1,680 Descending FlightAware
08:34 32.7530 34.0360 158° South 335 386 14,000 -1,740 Descending FlightAware
08:35 32.6980 34.0630 158° South 331 381 12,900 -1,620 Descending FlightAware
08:35 32.6430 34.0900 158° South 327 376 11,900 -1,620 Descending FlightAware
08:36 32.5960 34.1130 158° South 324 373 11,000 -1,200 Descending FlightAware
08:36 32.5460 34.1370 158° South 301 346 10,500 -1,020 Descending FlightAware
08:37 32.5110 34.1560 155° Southeast 297 342 9,900 -1,440 Descending FlightAware
08:37 32.4940 34.1720 142° Southeast 296 341 9,500 -1,440 Descending FlightAware
08:37 32.4760 34.1930 135° Southeast 293 337 9,100 -1,320 Descending FlightAware
08:38 32.4540 34.2180 136° Southeast 291 335 8,600 -1,320 Descending FlightAware
08:38 32.4360 34.2400 134° Southeast 288 331 8,200 -1,320 Descending FlightAware
08:38 32.4190 34.2610 134° Southeast 287 330 7,800 -780 Descending FlightAware
08:39 32.3890 34.2960 135° Southeast 286 329 7,500 -420 Descending FlightAware
08:42 32.1428 34.6072 140° Southeast  Level FlightAware Approximate
08:43 32.0631 34.7507 115° Southeast  Level FlightAware Approximate
08:44 32.0000 34.8667 125° Southeast  Level FlightAware Approximate
08:45 32.0095 34.8769 125° Southeast  Level Estimated
08:45 32.1210 34.6990 125° Southeast 226 260 5,000  Level FlightAware
08:46 32.1070 34.7250 122° Southeast 226 260 5,000  Level FlightAware
08:46 32.0940 34.7490 123° Southeast 208 239 5,000 120 Level FlightAware
08:46 32.0780 34.7710 131° Southeast 194 223 5,100 -300 Climbing FlightAware
08:47 32.0690 34.7820 134° Southeast 189 217 4,800 -1,020 Descending FlightAware
08:47 32.0570 34.7950 137° Southeast 197 227 4,500 -480 Descending FlightAware
08:47 32.0830 34.7660 317° Northwest 196 226 4,500  Level FlightAware
08:48 32.0260 34.8290 137° Southeast 195 224 4,500 -180 Level FlightAware
08:48 32.0150 34.8420 135° Southeast 190 219 4,400 -1,020 Descending FlightAware
08:49 32.0000 34.8600 134° Southeast 193 222 3,800 -1,620 Descending FlightAware
08:49 31.9940 34.8720 121° Southeast 193 222 3,400 -2,040 Descending FlightAware
08:49 31.9930 34.8780 101° East 186 214 3,200 -1,200 Descending FlightAware
08:49 31.9980 34.9070 79° East 173 199 2,700 -900 Descending FlightAware
08:50 32.0020 34.9230 74° East 171 197 2,500 -900 Descending FlightAware
08:50 32.0080 34.9450 72° East 173 199 2,100 -1,020 Descending FlightAware
08:50 32.0110 34.9490 49° Northeast 170 196 2,000 -960 Descending FlightAware
08:50 32.0150 34.9520 32° Northeast 167 192 1,900 -1,020 Descending FlightAware
08:50 32.0190 34.9540 23° Northeast 162 186 1,800 -1,140 Descending FlightAware
08:50 32.0220 34.9550 16° North 151 174 1,700 -1,020 Descending FlightAware
08:51 32.0380 34.9500 345° North 145 167 1,300 -1,020 Descending FlightAware
08:51 32.0450 34.9360 301° West 148 170 1,000 -720 Descending FlightAware
08:51 32.0450 34.9320 270° West 150 173 1,000  Level FlightAware
08:52 32.0450 34.9120 270° West 150 173 1,000 -780 Level FlightAware
08:52 32.0410 34.9060 232° Southwest 159 183 600 -1,800 Descending FlightAware
08:52 32.0390 34.8920 260° West 159 183 400 -300 Descending FlightAware
08:53 32.0350 34.8710 257° West 159 183 400  Level FlightAware